Time;durP1;ratioP1;P1;durP2;ratioP2;P2;SDS_P1;SDS_P2;PMS_P1;PMS_P2;Temp;Humidity;BMP_temperature;BMP_pressure;BME280_temperature;BME280_humidity;BME280_pressure;Samples;Min_cycle;Max_cycle;Signal;HPM_P1;HPM_P2
2022/10/17 00:01:07;;;;;;;9.47;3.40;;;13.10;99.90;;;;;;5038532;28;20633;-86
2022/10/17 00:03:34;;;;;;;6.63;3.10;;;13.50;99.90;;;;;;5040561;28;20637;-86
2022/10/17 00:06:05;;;;;;;4.63;2.90;;;13.50;99.90;;;;;;5045848;28;20618;-87
2022/10/17 00:08:32;;;;;;;3.40;2.50;;;13.10;99.90;;;;;;5040849;28;20647;-86
2022/10/17 00:11:03;;;;;;;2.83;2.63;;;13.30;99.90;;;;;;5040284;28;20626;-86
2022/10/17 00:13:30;;;;;;;3.53;2.70;;;13.40;99.90;;;;;;5044844;28;21599;-86
2022/10/17 00:15:57;;;;;;;7.37;2.90;;;13.20;99.90;;;;;;5044741;28;20625;-86
2022/10/17 00:18:24;;;;;;;4.40;2.40;;;13.10;99.90;;;;;;5049503;28;20682;-86
2022/10/17 00:20:50;;;;;;;4.67;2.30;;;13.00;99.90;;;;;;5045439;28;20978;-86
2022/10/17 00:23:18;;;;;;;3.87;3.43;;;13.10;99.90;;;;;;5043209;28;20637;-87
2022/10/17 00:25:45;;;;;;;5.20;2.80;;;12.80;99.90;;;;;;5045342;28;20629;-87
2022/10/17 00:28:14;;;;;;;4.40;2.30;;;13.20;99.90;;;;;;5045599;28;20650;-88
2022/10/17 00:30:42;;;;;;;3.33;2.60;;;13.10;99.90;;;;;;5038950;28;20633;-87
2022/10/17 00:33:09;;;;;;;4.97;2.50;;;13.10;99.90;;;;;;5045383;28;20627;-86
2022/10/17 00:35:35;;;;;;;6.40;3.23;;;13.10;99.90;;;;;;5043798;28;20660;-87
2022/10/17 00:38:02;;;;;;;2.83;2.10;;;13.00;99.90;;;;;;5041073;28;20677;-87
2022/10/17 00:40:29;;;;;;;5.10;3.00;;;13.00;99.90;;;;;;5049399;28;20634;-87
2022/10/17 00:42:56;;;;;;;3.50;3.20;;;12.60;99.90;;;;;;5041961;28;20648;-87
2022/10/17 00:45:27;;;;;;;6.80;2.90;;;12.90;99.90;;;;;;5045559;28;20633;-86
2022/10/17 00:48:00;;;;;;;8.60;3.47;;;12.60;99.90;;;;;;5038662;28;20653;-86
2022/10/17 00:50:27;;;;;;;9.90;3.70;;;12.80;99.90;;;;;;5044999;28;20621;-87
2022/10/17 00:52:55;;;;;;;10.63;3.70;;;12.60;99.90;;;;;;5047479;28;20634;-86
2022/10/17 00:55:25;;;;;;;3.57;3.13;;;12.90;99.90;;;;;;5049498;28;20629;-86
2022/10/17 00:57:52;;;;;;;8.60;3.60;;;13.00;99.90;;;;;;5042138;28;20686;-87
2022/10/17 01:00:19;;;;;;;5.00;4.10;;;12.90;99.90;;;;;;5042426;28;20714;-87
2022/10/17 01:02:48;;;;;;;9.00;3.53;;;12.90;99.90;;;;;;5042793;28;20661;-87
2022/10/17 01:05:16;;;;;;;7.30;3.77;;;12.90;99.90;;;;;;5044716;28;20638;-87
2022/10/17 01:07:44;;;;;;;5.30;4.27;;;12.50;99.90;;;;;;5042653;28;20654;-88
2022/10/17 01:10:13;;;;;;;7.97;4.60;;;12.90;99.90;;;;;;5020844;28;20631;-88
2022/10/17 01:12:51;;;;;;;7.47;4.80;;;12.70;99.90;;;;;;5038885;28;21008;-88
2022/10/17 01:15:27;;;;;;;12.43;5.10;;;12.90;99.90;;;;;;5040319;28;21008;-88
2022/10/17 01:18:06;;;;;;;10.03;5.20;;;12.90;99.90;;;;;;5042820;28;20692;-88
2022/10/17 01:21:07;;;;;;;8.93;5.07;;;12.70;99.90;;;;;;5045372;28;20990;-88
2022/10/17 01:24:06;;;;;;;12.10;4.97;;;12.80;99.90;;;;;;5040097;28;20640;-87
2022/10/17 01:26:50;;;;;;;7.37;4.60;;;12.70;99.90;;;;;;5042733;28;20629;-88
2022/10/17 01:29:36;;;;;;;8.03;5.20;;;12.50;99.90;;;;;;5044671;28;20606;-88
2022/10/17 01:32:10;;;;;;;7.57;5.37;;;12.70;99.90;;;;;;5062944;28;20627;-87
2022/10/17 01:34:45;;;;;;;13.00;5.30;;;12.40;99.90;;;;;;5039727;28;20628;-87
2022/10/17 01:37:19;;;;;;;9.43;4.77;;;12.40;99.90;;;;;;5044498;28;20678;-87
2022/10/17 01:39:51;;;;;;;11.30;5.97;;;12.50;99.90;;;;;;5043738;28;20653;-87
2022/10/17 01:42:23;;;;;;;6.90;4.93;;;12.40;99.90;;;;;;5038978;28;20638;-87
2022/10/17 01:44:55;;;;;;;10.23;4.47;;;12.20;99.90;;;;;;5043958;28;20649;-87
2022/10/17 01:47:28;;;;;;;8.17;5.23;;;12.30;99.90;;;;;;5041000;28;21399;-86
2022/10/17 01:49:59;;;;;;;7.03;5.13;;;12.20;99.90;;;;;;5050836;28;20618;-87
2022/10/17 01:52:30;;;;;;;7.67;4.83;;;12.30;99.90;;;;;;5038334;28;20648;-87
2022/10/17 01:55:03;;;;;;;7.53;5.20;;;12.30;99.90;;;;;;5040538;28;20852;-87
2022/10/17 01:57:34;;;;;;;15.73;5.07;;;12.20;99.90;;;;;;5044271;28;20682;-87
2022/10/17 02:00:05;;;;;;;9.10;5.00;;;12.20;99.90;;;;;;5044264;28;20626;-87
2022/10/17 02:02:34;;;;;;;11.73;3.97;;;12.70;99.90;;;;;;5040098;28;20633;-86
2022/10/17 02:05:03;;;;;;;7.13;5.03;;;12.40;99.90;;;;;;5036793;28;20629;-87
2022/10/17 02:07:30;;;;;;;10.53;5.23;;;12.30;99.90;;;;;;5039428;28;20657;-86
2022/10/17 02:09:57;;;;;;;7.33;4.40;;;12.00;99.90;;;;;;5043132;28;20626;-86
2022/10/17 02:12:48;;;;;;;5.90;4.23;;;12.40;99.90;;;;;;5036250;28;20638;-87
2022/10/17 02:15:33;;;;;;;10.03;5.33;;;12.10;99.90;;;;;;5038408;28;20623;-86
2022/10/17 02:18:15;;;;;;;9.60;5.40;;;12.00;99.90;;;;;;5044824;28;20673;-86
2022/10/17 02:20:51;;;;;;;9.03;6.33;;;12.20;99.90;;;;;;5031208;28;20630;-86
2022/10/17 02:23:27;;;;;;;8.20;4.97;;;11.90;99.90;;;;;;5047366;28;20622;-86
2022/10/17 02:26:01;;;;;;;7.20;5.40;;;12.30;99.90;;;;;;5041381;28;20626;-87
2022/10/17 02:28:36;;;;;;;9.80;5.10;;;11.90;99.90;;;;;;5046170;28;20998;-87
2022/10/17 02:31:07;;;;;;;14.80;6.00;;;12.00;99.90;;;;;;5044920;28;21192;-85
2022/10/17 02:33:40;;;;;;;12.27;5.40;;;12.40;99.90;;;;;;5042150;28;20626;-87
2022/10/17 02:36:12;;;;;;;7.03;5.30;;;12.10;99.90;;;;;;5040158;28;20629;-88
2022/10/17 02:38:42;;;;;;;8.07;5.90;;;11.80;99.90;;;;;;5035914;28;20689;-89
2022/10/17 02:41:13;;;;;;;9.90;4.50;;;12.00;99.90;;;;;;5031166;28;186952;-87
2022/10/17 02:43:44;;;;;;;6.07;4.53;;;12.10;99.90;;;;;;5032944;28;20639;-88
2022/10/17 02:46:11;;;;;;;5.90;3.73;;;11.90;99.90;;;;;;5041425;28;20622;-85
2022/10/17 02:48:44;;;;;;;7.33;3.90;;;11.80;99.90;;;;;;5037008;28;20642;-88
2022/10/17 02:51:23;;;;;;;5.33;4.57;;;11.70;99.90;;;;;;5039001;28;20633;-87
2022/10/17 02:53:56;;;;;;;8.60;4.33;;;11.60;99.90;;;;;;5037370;28;20635;-87
2022/10/17 02:56:26;;;;;;;7.00;5.20;;;12.10;99.90;;;;;;5037647;28;20607;-87
2022/10/17 02:58:57;;;;;;;12.63;4.63;;;11.80;99.90;;;;;;5044055;28;20685;-87
2022/10/17 03:01:24;;;;;;;10.23;4.50;;;11.70;99.90;;;;;;5036898;28;21219;-87
2022/10/17 03:04:05;;;;;;;10.43;4.87;;;12.30;99.90;;;;;;5027535;28;20623;-85
2022/10/17 03:06:31;;;;;;;6.47;4.00;;;12.10;99.90;;;;;;5035684;28;20627;-87
2022/10/17 03:08:58;;;;;;;7.73;4.30;;;11.70;99.90;;;;;;5041417;28;20626;-88
2022/10/17 03:11:25;;;;;;;8.17;4.43;;;12.30;99.90;;;;;;5040649;28;21181;-88
2022/10/17 03:13:52;;;;;;;9.40;5.03;;;12.00;99.90;;;;;;5037082;28;20634;-88
2022/10/17 03:16:19;;;;;;;7.90;4.70;;;11.70;99.90;;;;;;5037747;28;21024;-89
2022/10/17 03:18:45;;;;;;;9.27;5.30;;;11.50;99.90;;;;;;5040007;28;20735;-88
2022/10/17 03:21:13;;;;;;;9.17;4.83;;;11.70;99.90;;;;;;5047180;28;20648;-89
2022/10/17 03:23:40;;;;;;;7.97;5.80;;;11.60;99.90;;;;;;5041320;28;21184;-88
2022/10/17 03:26:08;;;;;;;8.47;5.07;;;11.70;99.90;;;;;;5041488;28;21432;-88
2022/10/17 03:28:35;;;;;;;10.03;5.33;;;11.50;99.90;;;;;;5039481;28;20646;-88
2022/10/17 03:31:07;;;;;;;6.20;5.17;;;11.90;99.90;;;;;;5040276;28;20630;-87
2022/10/17 03:33:35;;;;;;;9.53;5.40;;;11.60;99.90;;;;;;5037576;28;20657;-86
2022/10/17 03:36:06;;;;;;;9.30;4.80;;;11.40;99.90;;;;;;5042731;28;20658;-87
2022/10/17 03:38:34;;;;;;;11.73;5.40;;;11.70;99.90;;;;;;5035930;28;20671;-86
2022/10/17 03:41:01;;;;;;;13.57;5.47;;;11.60;99.90;;;;;;5043384;28;20660;-86
2022/10/17 03:43:28;;;;;;;6.30;5.57;;;11.60;99.90;;;;;;5037819;28;20625;-86
2022/10/17 03:45:55;;;;;;;5.77;4.97;;;11.70;99.90;;;;;;5038175;28;20991;-86
2022/10/17 03:48:21;;;;;;;9.53;5.67;;;11.50;99.90;;;;;;5036160;28;20704;-86
2022/10/17 03:50:48;;;;;;;7.93;4.93;;;11.40;99.90;;;;;;5044599;28;21180;-86
2022/10/17 03:53:15;;;;;;;8.83;5.30;;;11.90;99.90;;;;;;5036439;28;20634;-86
2022/10/17 03:55:44;;;;;;;11.60;5.70;;;11.70;99.90;;;;;;5038507;28;20634;-87
2022/10/17 03:58:10;;;;;;;12.03;6.70;;;11.80;99.90;;;;;;5042434;28;20674;-87
2022/10/17 04:00:37;;;;;;;5.47;4.83;;;11.50;99.90;;;;;;5044214;28;20624;-86
2022/10/17 04:03:04;;;;;;;10.50;5.90;;;11.90;99.90;;;;;;5036188;28;20637;-86
2022/10/17 04:05:31;;;;;;;8.27;5.43;;;11.80;99.90;;;;;;5040392;28;20644;-87
2022/10/17 04:07:58;;;;;;;5.40;4.83;;;11.50;99.90;;;;;;5037189;28;20737;-88
2022/10/17 04:10:24;;;;;;;5.90;5.30;;;11.80;99.90;;;;;;5036585;28;20635;-86
2022/10/17 04:12:53;;;;;;;6.23;5.63;;;11.50;99.90;;;;;;5039004;28;20629;-86
2022/10/17 04:15:20;;;;;;;9.07;6.23;;;11.70;99.90;;;;;;5041789;28;20619;-86
2022/10/17 04:17:46;;;;;;;7.40;5.67;;;11.40;99.90;;;;;;5041187;28;20654;-88
2022/10/17 04:20:13;;;;;;;8.57;7.70;;;11.40;99.90;;;;;;5041551;28;20996;-86
2022/10/17 04:22:40;;;;;;;12.77;7.37;;;11.40;99.90;;;;;;5040997;28;20990;-87
2022/10/17 04:25:07;;;;;;;17.37;6.80;;;11.30;99.90;;;;;;5039163;28;20618;-88
2022/10/17 04:27:34;;;;;;;10.57;9.37;;;11.70;99.90;;;;;;5038321;28;21249;-87
2022/10/17 04:30:02;;;;;;;12.30;9.63;;;11.70;99.90;;;;;;5040323;28;21738;-87
2022/10/17 04:32:29;;;;;;;9.50;8.70;;;11.40;99.90;;;;;;5038742;28;20631;-87
2022/10/17 04:34:55;;;;;;;11.93;8.93;;;11.40;99.90;;;;;;5042074;28;20633;-87
2022/10/17 04:37:22;;;;;;;11.20;10.07;;;11.30;99.90;;;;;;5041518;28;20662;-87
2022/10/17 04:39:49;;;;;;;10.90;9.10;;;11.50;99.90;;;;;;5038916;28;21243;-87
2022/10/17 04:42:16;;;;;;;12.53;8.60;;;11.60;99.90;;;;;;5039209;28;20641;-87
2022/10/17 04:44:42;;;;;;;8.33;7.57;;;11.70;99.90;;;;;;5044430;28;20633;-88
2022/10/17 04:47:11;;;;;;;8.33;7.50;;;11.70;99.90;;;;;;5046820;28;20651;-87
2022/10/17 04:49:37;;;;;;;10.50;7.80;;;11.40;99.90;;;;;;5043738;28;20625;-87
2022/10/17 04:52:04;;;;;;;10.07;9.07;;;11.60;99.90;;;;;;5046935;28;20629;-87
2022/10/17 04:54:31;;;;;;;10.47;8.17;;;11.60;99.90;;;;;;5047340;28;20629;-87
2022/10/17 04:56:58;;;;;;;8.70;7.90;;;11.20;99.90;;;;;;5040544;28;21189;-87
2022/10/17 04:59:25;;;;;;;15.73;8.60;;;11.50;99.90;;;;;;5046720;28;20666;-86
2022/10/17 05:01:52;;;;;;;15.30;8.80;;;11.50;99.90;;;;;;5040928;28;22170;-87
2022/10/17 05:04:20;;;;;;;8.63;7.30;;;11.70;99.90;;;;;;5045427;28;21246;-88
2022/10/17 05:06:47;;;;;;;8.60;6.90;;;11.60;99.90;;;;;;5043955;28;20623;-87
2022/10/17 05:09:13;;;;;;;12.03;6.90;;;11.10;99.90;;;;;;5048888;28;20639;-87
2022/10/17 05:11:44;;;;;;;8.20;7.40;;;11.40;99.90;;;;;;5049413;28;20625;-87
2022/10/17 05:14:11;;;;;;;11.00;8.07;;;11.20;99.90;;;;;;5043613;28;20622;-87
2022/10/17 05:16:38;;;;;;;7.10;6.40;;;11.40;99.90;;;;;;5044305;28;20991;-87
2022/10/17 05:19:05;;;;;;;12.67;7.03;;;10.90;99.90;;;;;;5037272;28;20687;-88
2022/10/17 05:21:33;;;;;;;8.17;7.17;;;10.90;99.90;;;;;;5045973;28;20626;-87
2022/10/17 05:24:00;;;;;;;13.40;8.40;;;10.90;99.90;;;;;;5045433;28;20633;-87
2022/10/17 05:26:27;;;;;;;18.20;8.70;;;11.10;99.90;;;;;;5041408;28;20966;-87
2022/10/17 05:28:54;;;;;;;15.40;8.40;;;11.40;99.90;;;;;;5041052;28;21290;-87
2022/10/17 05:31:20;;;;;;;8.60;6.97;;;11.10;99.90;;;;;;5041987;28;20799;-87
2022/10/17 05:33:47;;;;;;;10.17;7.97;;;11.00;99.90;;;;;;5047547;28;20625;-88
2022/10/17 05:36:14;;;;;;;7.30;6.60;;;11.40;99.90;;;;;;5037337;28;20627;-87
2022/10/17 05:38:42;;;;;;;7.57;6.80;;;11.10;99.90;;;;;;5041303;28;20674;-87
2022/10/17 05:41:10;;;;;;;9.10;6.47;;;11.50;99.90;;;;;;5041003;28;20631;-87
2022/10/17 05:43:37;;;;;;;9.90;7.30;;;11.00;99.90;;;;;;5040483;28;21000;-88
2022/10/17 05:46:04;;;;;;;10.07;7.00;;;11.10;99.90;;;;;;5039844;28;21133;-87
2022/10/17 05:48:31;;;;;;;7.27;6.60;;;11.20;99.90;;;;;;5042929;28;20703;-87
2022/10/17 05:50:59;;;;;;;8.80;7.10;;;11.10;99.90;;;;;;5047347;28;21191;-88
2022/10/17 05:53:26;;;;;;;9.73;6.57;;;11.40;99.90;;;;;;5038717;28;20685;-87
2022/10/17 05:55:57;;;;;;;9.53;7.13;;;11.20;99.90;;;;;;5043747;28;20644;-87
2022/10/17 05:58:26;;;;;;;11.00;7.50;;;11.50;99.90;;;;;;5046704;28;21041;-88
2022/10/17 06:00:58;;;;;;;10.87;7.40;;;11.20;99.90;;;;;;5043357;28;20626;-88
2022/10/17 06:03:26;;;;;;;10.67;7.33;;;11.10;99.90;;;;;;5041036;28;20642;-87
2022/10/17 06:05:53;;;;;;;7.43;6.60;;;11.10;99.90;;;;;;5043356;28;20686;-87
2022/10/17 06:08:19;;;;;;;8.23;7.17;;;11.30;99.90;;;;;;5044339;28;20678;-87
2022/10/17 06:10:47;;;;;;;8.50;6.80;;;11.60;99.90;;;;;;5041281;28;20626;-87
2022/10/17 06:13:16;;;;;;;11.20;6.90;;;11.40;99.90;;;;;;5039910;28;20721;-87
2022/10/17 06:15:43;;;;;;;8.47;6.53;;;11.40;99.90;;;;;;5041265;28;20631;-88
2022/10/17 06:18:10;;;;;;;7.53;6.80;;;11.70;99.90;;;;;;5036669;28;21108;-87
2022/10/17 06:20:38;;;;;;;8.43;7.23;;;11.80;99.90;;;;;;5045358;28;21170;-87
2022/10/17 06:23:05;;;;;;;10.27;7.10;;;11.50;99.90;;;;;;5041281;28;20717;-88
2022/10/17 06:25:32;;;;;;;9.53;7.10;;;11.90;99.90;;;;;;5043272;28;20626;-88
2022/10/17 06:27:59;;;;;;;8.47;7.67;;;12.00;99.90;;;;;;5043472;28;20658;-88
2022/10/17 06:30:27;;;;;;;9.73;7.23;;;11.90;99.90;;;;;;5043423;28;20654;-88
2022/10/17 06:32:54;;;;;;;11.20;7.03;;;12.10;99.90;;;;;;5040414;28;20658;-88
2022/10/17 06:35:21;;;;;;;7.83;6.40;;;12.00;99.90;;;;;;5044938;28;20630;-87
2022/10/17 06:37:48;;;;;;;11.80;7.20;;;12.10;99.90;;;;;;5046358;28;20641;-88
2022/10/17 06:40:16;;;;;;;7.63;6.37;;;12.10;99.90;;;;;;5042389;28;20673;-88
2022/10/17 06:42:50;;;;;;;10.23;5.83;;;12.20;99.90;;;;;;5044074;28;21293;-89
2022/10/17 06:45:18;;;;;;;9.83;6.10;;;11.90;99.90;;;;;;5046554;28;20625;-88
2022/10/17 06:47:48;;;;;;;9.60;6.30;;;12.00;99.90;;;;;;5046542;28;20610;-88
2022/10/17 06:50:14;;;;;;;8.40;6.23;;;12.50;99.90;;;;;;5044326;28;21056;-88
2022/10/17 06:52:41;;;;;;;9.10;6.00;;;12.60;99.90;;;;;;5042646;28;20658;-88
2022/10/17 06:55:09;;;;;;;7.60;5.27;;;12.40;99.90;;;;;;5042934;28;20638;-88
2022/10/17 06:57:35;;;;;;;11.40;6.03;;;12.50;99.90;;;;;;5043115;28;20665;-88
2022/10/17 07:00:03;;;;;;;12.67;6.50;;;12.50;99.90;;;;;;5043360;28;20669;-88
2022/10/17 07:02:30;;;;;;;9.90;6.60;;;12.10;99.90;;;;;;5045453;28;20672;-88
2022/10/17 07:04:58;;;;;;;14.40;5.90;;;12.20;99.90;;;;;;5036596;28;20626;-88
2022/10/17 07:07:24;;;;;;;9.03;6.80;;;12.50;99.90;;;;;;5046504;28;20642;-88
2022/10/17 07:09:51;;;;;;;11.20;7.73;;;12.10;99.90;;;;;;5043535;28;20638;-88
2022/10/17 07:12:18;;;;;;;16.03;6.23;;;12.60;99.90;;;;;;5041947;28;20661;-88
2022/10/17 07:14:49;;;;;;;9.40;6.43;;;12.70;99.90;;;;;;5043414;28;20661;-87
2022/10/17 07:17:17;;;;;;;10.00;6.17;;;12.50;99.90;;;;;;5038286;28;20688;-90
2022/10/17 07:19:46;;;;;;;11.10;6.50;;;13.10;99.90;;;;;;5043486;28;20685;-93
2022/10/17 07:22:16;;;;;;;8.53;6.03;;;13.20;99.90;;;;;;5048710;28;20992;-94
2022/10/17 07:24:46;;;;;;;7.23;6.07;;;12.90;99.90;;;;;;5043765;28;20631;-94
2022/10/17 07:27:13;;;;;;;8.63;5.87;;;13.40;99.90;;;;;;5045705;28;20649;-95
2022/10/17 07:29:40;;;;;;;14.63;6.10;;;13.20;99.90;;;;;;5045802;28;20633;-91
2022/10/17 07:32:08;;;;;;;13.23;6.30;;;13.30;99.90;;;;;;5041828;28;20653;-95
2022/10/17 07:34:35;;;;;;;11.33;5.60;;;13.40;99.90;;;;;;5047103;28;20641;-94
2022/10/17 07:37:09;;;;;;;9.50;6.27;;;13.50;99.90;;;;;;5046189;28;20709;-93
2022/10/17 07:39:38;;;;;;;16.40;6.80;;;13.40;99.90;;;;;;5042104;28;20666;-95
2022/10/17 07:42:07;;;;;;;12.10;5.80;;;12.90;99.90;;;;;;5040653;28;20754;-95
2022/10/17 07:44:34;;;;;;;9.10;5.50;;;13.50;99.90;;;;;;5048811;28;20618;-95
2022/10/17 07:47:01;;;;;;;10.03;6.23;;;13.60;99.90;;;;;;5053257;28;20630;-95
2022/10/17 07:49:29;;;;;;;5.70;5.20;;;13.60;99.90;;;;;;5058602;28;20850;-94
2022/10/17 07:51:56;;;;;;;9.23;5.73;;;13.70;99.90;;;;;;5042246;28;20660;-94
2022/10/17 07:54:23;;;;;;;12.60;5.23;;;13.70;99.90;;;;;;5041870;28;20622;-94
2022/10/17 07:56:51;;;;;;;10.13;4.30;;;13.40;99.90;;;;;;5041159;28;20707;-92
2022/10/17 07:59:19;;;;;;;7.97;4.27;;;14.00;99.90;;;;;;5046110;28;21023;-94
2022/10/17 08:01:46;;;;;;;5.00;4.40;;;14.10;99.90;;;;;;5047416;28;20629;-94
2022/10/17 08:04:12;;;;;;;8.53;4.20;;;14.10;99.90;;;;;;5044284;28;20638;-95
2022/10/17 08:06:39;;;;;;;8.90;4.07;;;14.20;99.90;;;;;;5043461;28;20713;-95
2022/10/17 08:09:06;;;;;;;11.30;4.30;;;14.30;99.90;;;;;;5048864;28;20702;-95
2022/10/17 08:11:34;;;;;;;6.60;3.60;;;14.40;99.90;;;;;;5049727;28;21176;-95
2022/10/17 08:14:03;;;;;;;17.30;3.70;;;14.40;99.90;;;;;;5037761;28;20638;-94
2022/10/17 08:16:29;;;;;;;9.80;3.67;;;14.60;99.90;;;;;;5048741;28;21211;-93
2022/10/17 08:18:56;;;;;;;6.87;3.53;;;14.70;99.90;;;;;;5051481;28;20617;-94
2022/10/17 08:21:24;;;;;;;6.03;3.60;;;14.80;99.90;;;;;;5053938;28;21232;-95
2022/10/17 08:23:50;;;;;;;5.60;3.40;;;14.90;99.90;;;;;;5048772;28;20656;-95
2022/10/17 08:26:18;;;;;;;4.10;2.80;;;15.00;99.90;;;;;;5048490;28;20627;-95
2022/10/17 08:28:46;;;;;;;9.07;3.73;;;15.20;99.90;;;;;;5052997;28;20621;-94
2022/10/17 08:31:18;;;;;;;15.50;3.37;;;15.30;99.90;;;;;;5054256;28;20626;-93
2022/10/17 08:33:45;;;;;;;6.77;2.73;;;15.50;99.90;;;;;;5038963;28;20653;-93
2022/10/17 08:36:13;;;;;;;8.23;2.50;;;15.60;99.90;;;;;;5054521;28;21086;-95
2022/10/17 08:38:42;;;;;;;4.13;3.03;;;15.80;99.90;;;;;;5047146;28;20631;-93
2022/10/17 08:41:15;;;;;;;3.57;2.70;;;16.00;99.90;;;;;;5052147;28;20673;-94
2022/10/17 08:44:03;;;;;;;5.23;2.93;;;16.10;99.90;;;;;;5045758;28;20661;-93
2022/10/17 08:46:47;;;;;;;3.17;2.53;;;16.30;99.90;;;;;;5039768;28;21181;-94
2022/10/17 08:49:23;;;;;;;7.23;2.40;;;16.50;99.90;;;;;;5046726;28;20622;-93
2022/10/17 08:51:56;;;;;;;6.07;3.77;;;16.60;99.90;;;;;;5042686;28;20649;-94
2022/10/17 08:54:29;;;;;;;5.03;1.97;;;16.70;99.90;;;;;;5045599;28;20668;-94
2022/10/17 08:56:57;;;;;;;3.70;2.23;;;16.90;99.90;;;;;;5047546;28;20629;-93
2022/10/17 08:59:28;;;;;;;4.17;2.80;;;17.10;99.90;;;;;;5043949;28;21240;-93
2022/10/17 09:02:02;;;;;;;3.03;2.00;;;17.20;99.90;;;;;;5052855;28;20722;-92
2022/10/17 09:04:53;;;;;;;5.00;2.30;;;17.40;99.90;;;;;;5044832;28;20633;-93
2022/10/17 09:07:27;;;;;;;7.33;2.53;;;17.60;99.90;;;;;;5043134;28;20629;-93
2022/10/17 09:10:02;;;;;;;5.53;2.77;;;17.80;99.90;;;;;;5049706;28;20632;-93
2022/10/17 09:12:40;;;;;;;5.43;2.20;;;17.90;99.90;;;;;;5040850;28;21022;-92
2022/10/17 09:15:31;;;;;;;3.17;2.50;;;18.20;99.90;;;;;;5045532;28;20630;-94
2022/10/17 09:18:04;;;;;;;4.27;2.20;;;18.30;99.90;;;;;;5050237;28;20636;-93
2022/10/17 09:20:33;;;;;;;6.13;2.60;;;18.40;99.90;;;;;;5045676;28;20676;-93
2022/10/17 09:23:03;;;;;;;6.63;2.47;;;18.60;99.90;;;;;;5051869;28;20669;-93
2022/10/17 09:25:41;;;;;;;7.67;2.67;;;18.70;99.90;;;;;;5052737;28;20633;-93
2022/10/17 09:28:17;;;;;;;4.20;2.10;;;18.90;99.90;;;;;;5045745;28;21179;-93
2022/10/17 09:30:47;;;;;;;3.53;2.50;;;19.00;99.90;;;;;;5048939;28;20617;-93
2022/10/17 09:33:17;;;;;;;2.33;2.23;;;19.20;99.90;;;;;;5044005;28;20650;-93
2022/10/17 09:35:45;;;;;;;12.33;2.80;;;19.40;99.90;;;;;;5049409;28;20630;-94
2022/10/17 09:38:16;;;;;;;3.73;2.30;;;19.60;99.90;;;;;;5046484;28;20710;-93
2022/10/17 09:40:45;;;;;;;10.83;2.80;;;19.90;99.90;;;;;;5040768;28;20662;-93
2022/10/17 09:43:14;;;;;;;6.07;3.03;;;20.20;99.90;;;;;;5040765;28;20634;-94
2022/10/17 09:45:48;;;;;;;4.53;2.90;;;20.30;99.90;;;;;;5030345;28;20715;-93
2022/10/17 09:48:25;;;;;;;7.63;2.67;;;20.50;99.90;;;;;;5049907;28;20626;-94
2022/10/17 09:50:55;;;;;;;3.43;1.80;;;20.70;99.90;;;;;;5031576;28;20622;-91
2022/10/17 09:53:26;;;;;;;3.63;2.27;;;21.00;99.90;;;;;;5032972;28;20995;-92
2022/10/17 09:55:56;;;;;;;5.80;2.43;;;21.30;99.90;;;;;;5043085;28;21001;-90
2022/10/17 09:58:24;;;;;;;7.47;2.33;;;21.40;99.90;;;;;;5044960;28;20725;-94
2022/10/17 10:00:52;;;;;;;14.47;2.37;;;21.60;99.90;;;;;;5050788;28;20666;-91
2022/10/17 10:03:22;;;;;;;3.60;2.53;;;21.60;99.90;;;;;;5038284;28;20650;-93
2022/10/17 10:06:01;;;;;;;2.23;1.90;;;21.80;99.90;;;;;;5046579;28;20641;-90
2022/10/17 10:08:31;;;;;;;2.30;2.10;;;22.00;99.90;;;;;;5047566;28;20729;-90
2022/10/17 10:11:02;;;;;;;6.67;2.63;;;22.20;99.90;;;;;;5040079;28;20683;-91
2022/10/17 10:13:29;;;;;;;9.27;2.63;;;22.40;99.90;;;;;;5041205;28;20784;-91
2022/10/17 10:16:14;;;;;;;6.30;2.47;;;22.50;99.90;;;;;;5044370;28;20627;-91
2022/10/17 10:18:44;;;;;;;3.97;3.07;;;22.70;99.90;;;;;;5047284;28;20642;-91
2022/10/17 10:21:13;;;;;;;2.23;2.00;;;22.90;99.90;;;;;;5041414;28;20694;-92
2022/10/17 10:23:42;;;;;;;9.60;2.43;;;23.10;99.90;;;;;;5051389;28;20780;-93
2022/10/17 10:26:28;;;;;;;6.20;2.60;;;23.10;99.90;;;;;;5038527;28;20614;-96
2022/10/17 10:28:59;;;;;;;3.93;2.20;;;23.30;99.90;;;;;;5047788;28;20585;-94
2022/10/17 10:31:31;;;;;;;2.90;2.70;;;23.40;99.90;;;;;;5040276;28;21125;-92
2022/10/17 10:34:03;;;;;;;9.67;3.23;;;23.60;99.90;;;;;;5032603;28;20626;-93
2022/10/17 10:36:49;;;;;;;3.03;2.73;;;23.70;99.90;;;;;;5052616;28;20648;-93
2022/10/17 10:39:34;;;;;;;4.10;2.20;;;23.80;99.90;;;;;;5049694;28;20692;-92
2022/10/17 10:42:03;;;;;;;5.63;5.03;;;24.00;99.90;;;;;;5052879;28;21034;-93
2022/10/17 10:44:32;;;;;;;6.03;3.87;;;24.10;99.90;;;;;;5044116;28;20656;-93
2022/10/17 10:47:21;;;;;;;5.80;2.37;;;24.30;99.90;;;;;;5043835;28;21398;-94
2022/10/17 10:49:51;;;;;;;5.00;2.47;;;24.60;99.90;;;;;;5047000;28;20626;-94
2022/10/17 10:52:28;;;;;;;3.23;1.90;;;24.70;99.90;;;;;;5047982;28;20665;-94
2022/10/17 10:55:03;;;;;;;19.43;3.33;;;24.80;99.90;;;;;;5045556;28;20638;-93
2022/10/17 10:57:33;;;;;;;8.87;2.03;;;24.80;99.90;;;;;;5044173;28;20640;-93
2022/10/17 11:00:06;;;;;;;7.80;2.30;;;25.00;99.90;;;;;;5048958;28;20673;-93
2022/10/17 11:02:40;;;;;;;2.80;2.30;;;25.10;99.90;;;;;;5045633;28;20654;-93
2022/10/17 11:05:16;;;;;;;4.33;2.50;;;25.40;99.90;;;;;;5036289;28;20993;-93
2022/10/17 11:07:51;;;;;;;2.50;1.70;;;25.60;99.90;;;;;;5040900;28;20645;-94
2022/10/17 11:10:25;;;;;;;3.70;2.50;;;26.00;99.90;;;;;;5040924;28;20660;-93
2022/10/17 11:12:56;;;;;;;2.90;2.13;;;26.50;97.00;;;;;;5042619;28;21185;-94
2022/10/17 11:15:29;;;;;;;5.80;2.33;;;26.60;94.60;;;;;;5042898;28;20669;-93
2022/10/17 11:17:59;;;;;;;3.80;2.20;;;26.80;93.50;;;;;;5045037;28;20641;-93
2022/10/17 11:20:34;;;;;;;6.40;1.97;;;27.00;92.90;;;;;;5048000;28;20724;-94
2022/10/17 11:23:12;;;;;;;4.87;2.00;;;27.50;91.70;;;;;;5040154;28;20756;-93
2022/10/17 11:25:40;;;;;;;5.90;2.57;;;27.60;91.60;;;;;;5046711;28;20652;-93
2022/10/17 11:28:14;;;;;;;2.37;1.80;;;27.90;89.90;;;;;;5046479;28;20940;-93
2022/10/17 11:30:46;;;;;;;1.77;1.50;;;28.10;87.00;;;;;;5044412;28;20753;-94
2022/10/17 11:33:25;;;;;;;4.20;2.47;;;28.40;83.00;;;;;;5045057;28;20760;-93
2022/10/17 11:35:59;;;;;;;3.53;2.23;;;28.50;81.10;;;;;;5037036;28;20657;-93
2022/10/17 11:38:38;;;;;;;4.00;1.97;;;28.90;77.40;;;;;;5038271;28;20629;-93
2022/10/17 11:41:09;;;;;;;2.23;2.03;;;29.30;76.00;;;;;;5043540;28;20760;-93
2022/10/17 11:43:42;;;;;;;3.33;1.90;;;29.60;73.40;;;;;;5039565;28;21216;-93
2022/10/17 11:46:15;;;;;;;4.77;2.07;;;29.80;72.40;;;;;;5025273;28;21208;-94
2022/10/17 11:48:55;;;;;;;4.77;1.90;;;30.30;71.90;;;;;;5043044;28;21199;-93
2022/10/17 11:51:23;;;;;;;9.23;2.43;;;30.50;68.70;;;;;;5041213;28;20618;-94
2022/10/17 11:53:56;;;;;;;7.13;1.90;;;30.80;65.80;;;;;;5051448;28;20646;-93
2022/10/17 11:56:29;;;;;;;6.70;1.77;;;31.10;64.80;;;;;;5047995;28;20736;-93
2022/10/17 11:59:08;;;;;;;5.67;2.10;;;31.50;64.60;;;;;;5023566;28;20645;-93
2022/10/17 12:01:40;;;;;;;3.23;1.80;;;31.70;62.60;;;;;;5045081;28;20750;-94
2022/10/17 12:04:22;;;;;;;2.47;1.90;;;31.90;60.30;;;;;;5044486;28;20642;-94
2022/10/17 12:07:04;;;;;;;4.60;2.73;;;32.00;59.70;;;;;;5046490;28;20668;-93
2022/10/17 12:09:40;;;;;;;1.90;1.60;;;32.10;59.10;;;;;;5041001;28;20676;-93
2022/10/17 12:12:08;;;;;;;2.97;1.93;;;32.40;57.30;;;;;;5046460;28;20671;-93
2022/10/17 12:14:40;;;;;;;2.73;1.67;;;32.50;57.10;;;;;;5044425;28;21246;-92
2022/10/17 12:17:31;;;;;;;2.53;1.90;;;32.70;57.10;;;;;;5046644;28;20637;-92
2022/10/17 12:20:27;;;;;;;1.87;1.70;;;32.90;55.50;;;;;;5042881;28;20633;-92
2022/10/17 12:22:58;;;;;;;5.97;1.50;;;33.30;52.70;;;;;;5037880;28;20664;-92
2022/10/17 12:25:28;;;;;;;4.10;2.00;;;33.70;50.40;;;;;;5042768;28;20613;-93
2022/10/17 12:28:12;;;;;;;2.50;1.60;;;33.70;47.30;;;;;;5038409;28;20289;-92
2022/10/17 12:30:50;;;;;;;3.37;1.57;;;33.80;46.40;;;;;;5042100;28;21163;-93
2022/10/17 12:33:21;;;;;;;2.53;1.40;;;33.60;45.40;;;;;;5044699;28;20840;-92
2022/10/17 12:35:49;;;;;;;3.03;1.60;;;33.70;45.30;;;;;;5042563;28;20659;-94
2022/10/17 12:38:27;;;;;;;4.20;1.60;;;33.90;45.80;;;;;;5043909;28;20634;-94
2022/10/17 12:41:01;;;;;;;3.67;1.47;;;34.10;44.10;;;;;;5046133;28;20222;-93
2022/10/17 12:43:44;;;;;;;3.00;1.70;;;34.30;44.20;;;;;;5044384;28;20233;-93
2022/10/17 12:46:14;;;;;;;4.60;1.83;;;34.50;43.60;;;;;;5044220;28;20203;-93
2022/10/17 12:49:01;;;;;;;2.90;1.57;;;34.30;42.50;;;;;;5043677;28;20248;-92
2022/10/17 12:51:29;;;;;;;2.37;1.33;;;34.50;42.00;;;;;;5040321;28;20199;-92
2022/10/17 12:54:01;;;;;;;3.43;1.63;;;34.50;42.00;;;;;;5044031;28;20195;-94
2022/10/17 12:56:38;;;;;;;4.82;1.40;;;34.50;41.90;;;;;;5034027;28;20211;-93
2022/10/17 12:59:13;;;;;;;6.78;2.20;;;34.60;41.40;;;;;;5042827;28;20194;-93
2022/10/17 13:01:43;;;;;;;5.55;1.70;;;34.70;41.20;;;;;;5046930;28;20237;-93
2022/10/17 13:04:11;;;;;;;2.40;1.30;;;34.60;41.40;;;;;;5041269;28;20215;-92